sensor_id;sensor_type;location;lat;lon;timestamp;temperature;humidity
29917;DHT22;16786;49.466;11.068;2022-12-05T00:01:28;6.30;99.90
29917;DHT22;16786;49.466;11.068;2022-12-05T00:04:00;6.30;99.90
29917;DHT22;16786;49.466;11.068;2022-12-05T00:06:29;6.30;99.90
29917;DHT22;16786;49.466;11.068;2022-12-05T00:08:57;6.30;99.90
29917;DHT22;16786;49.466;11.068;2022-12-05T00:11:28;6.40;99.90
29917;DHT22;16786;49.466;11.068;2022-12-05T00:13:58;6.30;99.90
29917;DHT22;16786;49.466;11.068;2022-12-05T00:16:27;6.30;99.90
29917;DHT22;16786;49.466;11.068;2022-12-05T00:18:55;6.30;99.90
29917;DHT22;16786;49.466;11.068;2022-12-05T00:21:25;6.30;99.90
29917;DHT22;16786;49.466;11.068;2022-12-05T00:23:54;6.20;99.90
29917;DHT22;16786;49.466;11.068;2022-12-05T00:26:22;6.20;99.90
29917;DHT22;16786;49.466;11.068;2022-12-05T00:28:50;6.20;99.90
29917;DHT22;16786;49.466;11.068;2022-12-05T00:31:22;6.20;99.90
29917;DHT22;16786;49.466;11.068;2022-12-05T00:33:50;6.20;99.90
29917;DHT22;16786;49.466;11.068;2022-12-05T00:36:20;6.20;99.90
29917;DHT22;16786;49.466;11.068;2022-12-05T00:38:48;6.10;99.90
29917;DHT22;16786;49.466;11.068;2022-12-05T00:41:19;6.10;99.90
29917;DHT22;16786;49.466;11.068;2022-12-05T00:43:46;6.10;99.90
29917;DHT22;16786;49.466;11.068;2022-12-05T00:46:16;6.10;99.90
29917;DHT22;16786;49.466;11.068;2022-12-05T00:48:44;6.10;99.90
29917;DHT22;16786;49.466;11.068;2022-12-05T00:53:39;6.10;99.90
29917;DHT22;16786;49.466;11.068;2022-12-05T00:56:12;6.10;99.90
29917;DHT22;16786;49.466;11.068;2022-12-05T00:58:40;6.10;99.90
29917;DHT22;16786;49.466;11.068;2022-12-05T01:01:19;6.10;99.90
29917;DHT22;16786;49.466;11.068;2022-12-05T01:03:47;6.10;99.90
29917;DHT22;16786;49.466;11.068;2022-12-05T01:06:15;6.10;99.90
29917;DHT22;16786;49.466;11.068;2022-12-05T01:08:43;6.10;99.90
29917;DHT22;16786;49.466;11.068;2022-12-05T01:11:13;6.10;99.90
29917;DHT22;16786;49.466;11.068;2022-12-05T01:13:41;6.20;99.90
29917;DHT22;16786;49.466;11.068;2022-12-05T01:16:25;6.20;99.90
29917;DHT22;16786;49.466;11.068;2022-12-05T01:18:53;6.20;99.90
29917;DHT22;16786;49.466;11.068;2022-12-05T01:21:21;6.10;99.90
29917;DHT22;16786;49.466;11.068;2022-12-05T01:23:49;6.10;99.90
29917;DHT22;16786;49.466;11.068;2022-12-05T01:26:18;6.10;99.90
29917;DHT22;16786;49.466;11.068;2022-12-05T01:28:46;6.10;99.90
29917;DHT22;16786;49.466;11.068;2022-12-05T01:33:48;6.00;99.90
29917;DHT22;16786;49.466;11.068;2022-12-05T01:36:16;5.90;99.90
29917;DHT22;16786;49.466;11.068;2022-12-05T01:38:43;6.00;99.90
29917;DHT22;16786;49.466;11.068;2022-12-05T01:41:15;5.90;99.90
29917;DHT22;16786;49.466;11.068;2022-12-05T01:43:58;5.90;99.90
29917;DHT22;16786;49.466;11.068;2022-12-05T01:46:27;5.90;99.90
29917;DHT22;16786;49.466;11.068;2022-12-05T01:51:40;5.90;99.90
29917;DHT22;16786;49.466;11.068;2022-12-05T01:54:09;5.90;99.90
29917;DHT22;16786;49.466;11.068;2022-12-05T01:56:38;5.90;99.90
29917;DHT22;16786;49.466;11.068;2022-12-05T01:59:08;5.90;99.90
29917;DHT22;16786;49.466;11.068;2022-12-05T02:01:37;5.80;99.90
29917;DHT22;16786;49.466;11.068;2022-12-05T02:04:05;5.80;99.90
29917;DHT22;16786;49.466;11.068;2022-12-05T02:06:33;5.80;99.90
29917;DHT22;16786;49.466;11.068;2022-12-05T02:09:00;5.80;99.90
29917;DHT22;16786;49.466;11.068;2022-12-05T02:11:29;5.80;99.90
29917;DHT22;16786;49.466;11.068;2022-12-05T02:14:19;5.70;99.90
29917;DHT22;16786;49.466;11.068;2022-12-05T02:29:01;5.60;99.90
29917;DHT22;16786;49.466;11.068;2022-12-05T02:31:36;5.60;99.90
29917;DHT22;16786;49.466;11.068;2022-12-05T02:37:13;5.60;99.90
29917;DHT22;16786;49.466;11.068;2022-12-05T02:39:58;5.60;99.90
29917;DHT22;16786;49.466;11.068;2022-12-05T02:42:32;5.70;99.90
29917;DHT22;16786;49.466;11.068;2022-12-05T02:45:04;5.60;99.90
29917;DHT22;16786;49.466;11.068;2022-12-05T02:47:44;5.60;99.90
29917;DHT22;16786;49.466;11.068;2022-12-05T02:50:14;5.60;99.90
29917;DHT22;16786;49.466;11.068;2022-12-05T02:52:46;5.60;99.90
29917;DHT22;16786;49.466;11.068;2022-12-05T02:55:16;5.60;99.90
29917;DHT22;16786;49.466;11.068;2022-12-05T02:57:49;5.60;99.90
29917;DHT22;16786;49.466;11.068;2022-12-05T03:00:18;5.60;99.90
29917;DHT22;16786;49.466;11.068;2022-12-05T03:02:47;5.50;99.90
29917;DHT22;16786;49.466;11.068;2022-12-05T03:05:38;5.50;99.90
29917;DHT22;16786;49.466;11.068;2022-12-05T03:08:10;5.50;99.90
29917;DHT22;16786;49.466;11.068;2022-12-05T03:10:39;5.40;99.90
29917;DHT22;16786;49.466;11.068;2022-12-05T03:13:15;5.40;99.90
29917;DHT22;16786;49.466;11.068;2022-12-05T03:15:48;5.40;99.90
29917;DHT22;16786;49.466;11.068;2022-12-05T03:18:23;5.30;99.90
29917;DHT22;16786;49.466;11.068;2022-12-05T03:20:58;5.30;99.90
29917;DHT22;16786;49.466;11.068;2022-12-05T03:23:34;5.30;99.90
29917;DHT22;16786;49.466;11.068;2022-12-05T03:29:33;5.30;99.90
29917;DHT22;16786;49.466;11.068;2022-12-05T03:35:08;5.10;99.90
29917;DHT22;16786;49.466;11.068;2022-12-05T03:45:36;5.00;99.90
29917;DHT22;16786;49.466;11.068;2022-12-05T03:48:06;5.00;99.90
29917;DHT22;16786;49.466;11.068;2022-12-05T03:50:39;5.00;99.90
29917;DHT22;16786;49.466;11.068;2022-12-05T03:53:13;5.00;99.90
29917;DHT22;16786;49.466;11.068;2022-12-05T03:56:04;5.00;99.90
29917;DHT22;16786;49.466;11.068;2022-12-05T03:58:53;5.00;99.90
29917;DHT22;16786;49.466;11.068;2022-12-05T04:01:25;5.00;99.90
29917;DHT22;16786;49.466;11.068;2022-12-05T04:04:00;5.10;99.90
29917;DHT22;16786;49.466;11.068;2022-12-05T04:06:37;5.00;99.90
29917;DHT22;16786;49.466;11.068;2022-12-05T04:09:10;4.90;99.90
29917;DHT22;16786;49.466;11.068;2022-12-05T04:11:48;4.90;99.90
29917;DHT22;16786;49.466;11.068;2022-12-05T04:14:23;4.90;99.90
29917;DHT22;16786;49.466;11.068;2022-12-05T04:17:04;4.90;99.90
29917;DHT22;16786;49.466;11.068;2022-12-05T04:19:56;4.80;99.90
29917;DHT22;16786;49.466;11.068;2022-12-05T04:22:45;4.80;99.90
29917;DHT22;16786;49.466;11.068;2022-12-05T04:25:14;4.80;99.90
29917;DHT22;16786;49.466;11.068;2022-12-05T04:31:10;4.70;99.90
29917;DHT22;16786;49.466;11.068;2022-12-05T04:36:19;4.70;99.90
29917;DHT22;16786;49.466;11.068;2022-12-05T04:39:25;4.60;99.90
29917;DHT22;16786;49.466;11.068;2022-12-05T04:42:15;4.60;99.90
29917;DHT22;16786;49.466;11.068;2022-12-05T04:44:53;4.60;99.90
29917;DHT22;16786;49.466;11.068;2022-12-05T04:47:25;4.60;99.90
29917;DHT22;16786;49.466;11.068;2022-12-05T04:49:54;4.60;99.90
29917;DHT22;16786;49.466;11.068;2022-12-05T04:52:23;4.60;99.90
29917;DHT22;16786;49.466;11.068;2022-12-05T04:55:00;4.60;99.90
29917;DHT22;16786;49.466;11.068;2022-12-05T04:57:38;4.60;99.90
29917;DHT22;16786;49.466;11.068;2022-12-05T05:00:07;4.60;99.90
29917;DHT22;16786;49.466;11.068;2022-12-05T05:02:44;4.60;99.90
29917;DHT22;16786;49.466;11.068;2022-12-05T05:05:16;4.50;99.90
29917;DHT22;16786;49.466;11.068;2022-12-05T05:07:52;4.40;99.90
29917;DHT22;16786;49.466;11.068;2022-12-05T05:10:30;4.40;99.90
29917;DHT22;16786;49.466;11.068;2022-12-05T05:12:58;4.40;99.90
29917;DHT22;16786;49.466;11.068;2022-12-05T05:15:25;4.40;99.90
29917;DHT22;16786;49.466;11.068;2022-12-05T05:17:52;4.40;99.90
29917;DHT22;16786;49.466;11.068;2022-12-05T05:20:20;4.40;99.90
29917;DHT22;16786;49.466;11.068;2022-12-05T05:22:52;4.40;99.90
29917;DHT22;16786;49.466;11.068;2022-12-05T05:25:20;4.40;99.90
29917;DHT22;16786;49.466;11.068;2022-12-05T05:27:53;4.40;99.90
29917;DHT22;16786;49.466;11.068;2022-12-05T05:30:22;4.40;99.90
29917;DHT22;16786;49.466;11.068;2022-12-05T05:32:50;4.40;99.90
29917;DHT22;16786;49.466;11.068;2022-12-05T05:35:17;4.40;99.90
29917;DHT22;16786;49.466;11.068;2022-12-05T05:37:45;4.40;99.90
29917;DHT22;16786;49.466;11.068;2022-12-05T05:40:12;4.40;99.90
29917;DHT22;16786;49.466;11.068;2022-12-05T05:42:48;4.30;99.90
29917;DHT22;16786;49.466;11.068;2022-12-05T05:45:17;4.40;99.90
29917;DHT22;16786;49.466;11.068;2022-12-05T05:47:47;4.30;99.90
29917;DHT22;16786;49.466;11.068;2022-12-05T05:50:15;4.30;99.90
29917;DHT22;16786;49.466;11.068;2022-12-05T05:52:48;4.40;99.90
29917;DHT22;16786;49.466;11.068;2022-12-05T05:55:15;4.30;99.90
29917;DHT22;16786;49.466;11.068;2022-12-05T05:57:42;4.30;99.90
29917;DHT22;16786;49.466;11.068;2022-12-05T06:00:10;4.30;99.90
29917;DHT22;16786;49.466;11.068;2022-12-05T06:02:38;4.30;99.90
29917;DHT22;16786;49.466;11.068;2022-12-05T06:05:06;4.30;99.90
29917;DHT22;16786;49.466;11.068;2022-12-05T06:07:33;4.20;99.90
29917;DHT22;16786;49.466;11.068;2022-12-05T06:10:01;4.20;99.90
29917;DHT22;16786;49.466;11.068;2022-12-05T06:12:28;4.10;99.90
29917;DHT22;16786;49.466;11.068;2022-12-05T06:14:55;4.00;99.90
29917;DHT22;16786;49.466;11.068;2022-12-05T06:17:23;4.00;99.90
29917;DHT22;16786;49.466;11.068;2022-12-05T06:19:50;4.00;99.90
29917;DHT22;16786;49.466;11.068;2022-12-05T06:22:18;4.00;99.90
29917;DHT22;16786;49.466;11.068;2022-12-05T06:24:45;3.90;99.90
29917;DHT22;16786;49.466;11.068;2022-12-05T06:27:12;3.80;99.90
29917;DHT22;16786;49.466;11.068;2022-12-05T06:29:39;3.90;99.90
29917;DHT22;16786;49.466;11.068;2022-12-05T06:32:07;3.80;99.90
29917;DHT22;16786;49.466;11.068;2022-12-05T06:34:35;3.80;99.90
29917;DHT22;16786;49.466;11.068;2022-12-05T06:37:02;3.80;99.90
29917;DHT22;16786;49.466;11.068;2022-12-05T06:39:30;3.80;99.90
29917;DHT22;16786;49.466;11.068;2022-12-05T06:41:57;3.80;99.90
29917;DHT22;16786;49.466;11.068;2022-12-05T06:44:24;3.70;99.90
29917;DHT22;16786;49.466;11.068;2022-12-05T06:46:53;3.70;99.90
29917;DHT22;16786;49.466;11.068;2022-12-05T06:49:22;3.70;99.90
29917;DHT22;16786;49.466;11.068;2022-12-05T06:51:58;3.60;99.90
29917;DHT22;16786;49.466;11.068;2022-12-05T06:54:26;3.60;99.90
29917;DHT22;16786;49.466;11.068;2022-12-05T06:56:53;3.60;99.90
29917;DHT22;16786;49.466;11.068;2022-12-05T06:59:20;3.60;99.90
29917;DHT22;16786;49.466;11.068;2022-12-05T07:01:48;3.60;99.90
29917;DHT22;16786;49.466;11.068;2022-12-05T07:04:18;3.50;99.90
29917;DHT22;16786;49.466;11.068;2022-12-05T07:06:47;3.50;99.90
29917;DHT22;16786;49.466;11.068;2022-12-05T07:09:19;3.50;99.90
29917;DHT22;16786;49.466;11.068;2022-12-05T07:11:50;3.60;99.90
29917;DHT22;16786;49.466;11.068;2022-12-05T07:14:18;3.60;99.90
29917;DHT22;16786;49.466;11.068;2022-12-05T07:17:05;3.50;99.90
29917;DHT22;16786;49.466;11.068;2022-12-05T07:19:32;3.50;99.90
29917;DHT22;16786;49.466;11.068;2022-12-05T07:22:00;3.50;99.90
29917;DHT22;16786;49.466;11.068;2022-12-05T07:24:27;3.50;99.90
29917;DHT22;16786;49.466;11.068;2022-12-05T07:26:54;3.50;99.90
29917;DHT22;16786;49.466;11.068;2022-12-05T07:29:21;3.50;99.90
29917;DHT22;16786;49.466;11.068;2022-12-05T07:31:49;3.40;99.90
29917;DHT22;16786;49.466;11.068;2022-12-05T07:34:16;3.50;99.90
29917;DHT22;16786;49.466;11.068;2022-12-05T07:36:43;3.40;99.90
29917;DHT22;16786;49.466;11.068;2022-12-05T07:39:11;3.50;99.90
29917;DHT22;16786;49.466;11.068;2022-12-05T07:41:38;3.50;99.90
29917;DHT22;16786;49.466;11.068;2022-12-05T07:44:10;3.50;99.90
29917;DHT22;16786;49.466;11.068;2022-12-05T07:46:38;3.50;99.90
29917;DHT22;16786;49.466;11.068;2022-12-05T07:49:06;3.60;99.90
29917;DHT22;16786;49.466;11.068;2022-12-05T07:51:34;3.60;99.90
29917;DHT22;16786;49.466;11.068;2022-12-05T07:54:02;3.60;99.90
29917;DHT22;16786;49.466;11.068;2022-12-05T07:56:29;3.70;99.90
29917;DHT22;16786;49.466;11.068;2022-12-05T07:58:56;3.70;99.90
29917;DHT22;16786;49.466;11.068;2022-12-05T08:01:26;3.70;99.90
29917;DHT22;16786;49.466;11.068;2022-12-05T08:03:55;3.70;99.90
29917;DHT22;16786;49.466;11.068;2022-12-05T08:06:27;3.70;99.90
29917;DHT22;16786;49.466;11.068;2022-12-05T08:08:55;3.70;99.90
29917;DHT22;16786;49.466;11.068;2022-12-05T08:11:29;3.70;99.90
29917;DHT22;16786;49.466;11.068;2022-12-05T08:13:57;3.70;99.90
29917;DHT22;16786;49.466;11.068;2022-12-05T08:16:27;3.80;99.90
29917;DHT22;16786;49.466;11.068;2022-12-05T08:19:04;3.80;99.90
29917;DHT22;16786;49.466;11.068;2022-12-05T08:21:32;3.80;99.90
29917;DHT22;16786;49.466;11.068;2022-12-05T08:24:00;3.90;99.90
29917;DHT22;16786;49.466;11.068;2022-12-05T08:26:29;4.10;99.90
29917;DHT22;16786;49.466;11.068;2022-12-05T08:31:32;4.10;99.90
29917;DHT22;16786;49.466;11.068;2022-12-05T08:34:00;4.10;99.90
29917;DHT22;16786;49.466;11.068;2022-12-05T08:36:28;4.10;99.90
29917;DHT22;16786;49.466;11.068;2022-12-05T08:38:59;4.10;99.90
29917;DHT22;16786;49.466;11.068;2022-12-05T08:41:27;4.10;99.90
29917;DHT22;16786;49.466;11.068;2022-12-05T08:43:57;4.00;99.90
29917;DHT22;16786;49.466;11.068;2022-12-05T08:46:25;4.00;99.90
29917;DHT22;16786;49.466;11.068;2022-12-05T08:48:53;4.10;99.90
29917;DHT22;16786;49.466;11.068;2022-12-05T08:51:20;4.20;99.90
29917;DHT22;16786;49.466;11.068;2022-12-05T08:53:48;4.20;99.90
29917;DHT22;16786;49.466;11.068;2022-12-05T08:56:15;4.30;99.90
29917;DHT22;16786;49.466;11.068;2022-12-05T08:58:47;4.30;99.90
29917;DHT22;16786;49.466;11.068;2022-12-05T09:01:17;4.50;99.90
29917;DHT22;16786;49.466;11.068;2022-12-05T09:03:45;4.60;99.90
29917;DHT22;16786;49.466;11.068;2022-12-05T09:06:24;4.50;99.90
29917;DHT22;16786;49.466;11.068;2022-12-05T09:08:56;4.50;99.90
29917;DHT22;16786;49.466;11.068;2022-12-05T09:11:26;4.50;99.90
29917;DHT22;16786;49.466;11.068;2022-12-05T09:13:55;4.40;99.90
29917;DHT22;16786;49.466;11.068;2022-12-05T09:16:27;4.40;99.90
29917;DHT22;16786;49.466;11.068;2022-12-05T09:19:10;4.30;99.90
29917;DHT22;16786;49.466;11.068;2022-12-05T09:21:39;4.30;99.90
29917;DHT22;16786;49.466;11.068;2022-12-05T09:24:08;4.40;99.90
29917;DHT22;16786;49.466;11.068;2022-12-05T09:26:35;4.40;99.90
29917;DHT22;16786;49.466;11.068;2022-12-05T09:29:03;4.40;99.90
29917;DHT22;16786;49.466;11.068;2022-12-05T09:31:30;4.40;99.90
29917;DHT22;16786;49.466;11.068;2022-12-05T09:33:58;4.50;99.90
29917;DHT22;16786;49.466;11.068;2022-12-05T09:36:28;4.50;99.90
29917;DHT22;16786;49.466;11.068;2022-12-05T09:39:00;4.50;99.90
29917;DHT22;16786;49.466;11.068;2022-12-05T09:48:13;4.60;99.90
29917;DHT22;16786;49.466;11.068;2022-12-05T09:50:48;4.60;99.90
29917;DHT22;16786;49.466;11.068;2022-12-05T09:53:23;4.70;99.90
29917;DHT22;16786;49.466;11.068;2022-12-05T09:56:03;4.80;99.90
29917;DHT22;16786;49.466;11.068;2022-12-05T09:58:41;4.90;99.90
29917;DHT22;16786;49.466;11.068;2022-12-05T10:11:58;5.00;99.90
29917;DHT22;16786;49.466;11.068;2022-12-05T10:14:57;5.00;99.90
29917;DHT22;16786;49.466;11.068;2022-12-05T10:17:37;5.00;99.90
29917;DHT22;16786;49.466;11.068;2022-12-05T10:20:28;5.00;99.90
29917;DHT22;16786;49.466;11.068;2022-12-05T10:23:11;5.10;99.90
29917;DHT22;16786;49.466;11.068;2022-12-05T10:26:04;5.30;99.90
29917;DHT22;16786;49.466;11.068;2022-12-05T10:29:06;5.10;99.90
29917;DHT22;16786;49.466;11.068;2022-12-05T10:31:38;5.10;99.90
29917;DHT22;16786;49.466;11.068;2022-12-05T10:34:14;5.10;99.90
29917;DHT22;16786;49.466;11.068;2022-12-05T10:36:54;5.10;99.90
29917;DHT22;16786;49.466;11.068;2022-12-05T10:39:22;5.10;99.90
29917;DHT22;16786;49.466;11.068;2022-12-05T10:41:49;5.10;99.90
29917;DHT22;16786;49.466;11.068;2022-12-05T10:44:17;5.10;99.90
29917;DHT22;16786;49.466;11.068;2022-12-05T10:46:45;5.20;99.90
29917;DHT22;16786;49.466;11.068;2022-12-05T10:49:12;5.30;99.90
29917;DHT22;16786;49.466;11.068;2022-12-05T10:51:39;5.30;99.90
29917;DHT22;16786;49.466;11.068;2022-12-05T10:54:22;5.20;99.90
29917;DHT22;16786;49.466;11.068;2022-12-05T10:56:52;5.20;99.90
29917;DHT22;16786;49.466;11.068;2022-12-05T10:59:22;5.20;99.90
29917;DHT22;16786;49.466;11.068;2022-12-05T11:01:53;5.10;99.90
29917;DHT22;16786;49.466;11.068;2022-12-05T11:04:41;5.30;99.90
29917;DHT22;16786;49.466;11.068;2022-12-05T11:07:32;5.40;99.90
29917;DHT22;16786;49.466;11.068;2022-12-05T11:10:03;5.30;99.90
29917;DHT22;16786;49.466;11.068;2022-12-05T11:12:51;5.20;99.90
29917;DHT22;16786;49.466;11.068;2022-12-05T11:15:21;5.20;99.90
29917;DHT22;16786;49.466;11.068;2022-12-05T11:17:55;5.00;99.90
29917;DHT22;16786;49.466;11.068;2022-12-05T11:22:51;5.00;99.90
29917;DHT22;16786;49.466;11.068;2022-12-05T11:25:33;5.10;99.90
29917;DHT22;16786;49.466;11.068;2022-12-05T11:33:38;5.20;99.90
29917;DHT22;16786;49.466;11.068;2022-12-05T11:36:17;5.20;99.90
29917;DHT22;16786;49.466;11.068;2022-12-05T11:38:45;5.30;99.90
29917;DHT22;16786;49.466;11.068;2022-12-05T11:55:23;5.20;99.90
29917;DHT22;16786;49.466;11.068;2022-12-05T12:07:23;5.30;99.90
29917;DHT22;16786;49.466;11.068;2022-12-05T12:09:45;5.30;99.90
29917;DHT22;16786;49.466;11.068;2022-12-05T12:12:27;5.40;99.90
29917;DHT22;16786;49.466;11.068;2022-12-05T12:18:52;5.40;99.90
29917;DHT22;16786;49.466;11.068;2022-12-05T12:21:22;5.50;99.90
29917;DHT22;16786;49.466;11.068;2022-12-05T12:27:52;5.80;99.90
29917;DHT22;16786;49.466;11.068;2022-12-05T12:41:47;5.70;99.90
29917;DHT22;16786;49.466;11.068;2022-12-05T12:50:43;5.50;99.90
29917;DHT22;16786;49.466;11.068;2022-12-05T12:56:30;5.50;99.90
29917;DHT22;16786;49.466;11.068;2022-12-05T13:01:47;5.50;99.90
29917;DHT22;16786;49.466;11.068;2022-12-05T13:04:31;5.50;99.90
29917;DHT22;16786;49.466;11.068;2022-12-05T13:07:09;5.50;99.90
29917;DHT22;16786;49.466;11.068;2022-12-05T13:09:42;5.50;99.90
29917;DHT22;16786;49.466;11.068;2022-12-05T13:12:23;5.50;99.90
29917;DHT22;16786;49.466;11.068;2022-12-05T13:14:57;5.50;99.90
29917;DHT22;16786;49.466;11.068;2022-12-05T13:17:28;5.50;99.90
29917;DHT22;16786;49.466;11.068;2022-12-05T13:19:56;5.50;99.90
29917;DHT22;16786;49.466;11.068;2022-12-05T13:22:26;5.60;99.90
29917;DHT22;16786;49.466;11.068;2022-12-05T13:24:54;5.60;99.90
29917;DHT22;16786;49.466;11.068;2022-12-05T13:27:25;5.60;99.90
29917;DHT22;16786;49.466;11.068;2022-12-05T13:29:59;5.60;99.90
29917;DHT22;16786;49.466;11.068;2022-12-05T13:32:32;5.50;99.90
29917;DHT22;16786;49.466;11.068;2022-12-05T13:35:10;5.50;99.90
29917;DHT22;16786;49.466;11.068;2022-12-05T13:37:45;5.50;99.90
29917;DHT22;16786;49.466;11.068;2022-12-05T13:40:40;5.50;99.90
29917;DHT22;16786;49.466;11.068;2022-12-05T13:43:41;5.50;99.90
29917;DHT22;16786;49.466;11.068;2022-12-05T13:46:32;5.50;99.90
29917;DHT22;16786;49.466;11.068;2022-12-05T13:49:12;5.50;99.90
29917;DHT22;16786;49.466;11.068;2022-12-05T13:51:44;5.40;99.90
29917;DHT22;16786;49.466;11.068;2022-12-05T13:54:18;5.40;99.90
29917;DHT22;16786;49.466;11.068;2022-12-05T14:07:43;5.30;99.90
29917;DHT22;16786;49.466;11.068;2022-12-05T14:10:14;5.40;99.90
29917;DHT22;16786;49.466;11.068;2022-12-05T14:12:47;5.30;99.90
29917;DHT22;16786;49.466;11.068;2022-12-05T14:15:33;5.30;99.90
29917;DHT22;16786;49.466;11.068;2022-12-05T14:18:17;5.30;99.90
29917;DHT22;16786;49.466;11.068;2022-12-05T14:26:07;5.10;99.90
29917;DHT22;16786;49.466;11.068;2022-12-05T14:37:07;5.10;99.90
29917;DHT22;16786;49.466;11.068;2022-12-05T14:39:56;5.10;99.90
29917;DHT22;16786;49.466;11.068;2022-12-05T14:42:37;5.10;99.90
29917;DHT22;16786;49.466;11.068;2022-12-05T14:47:52;5.00;99.90
29917;DHT22;16786;49.466;11.068;2022-12-05T14:56:10;5.00;99.90
29917;DHT22;16786;49.466;11.068;2022-12-05T15:01:19;5.00;99.90
29917;DHT22;16786;49.466;11.068;2022-12-05T15:04:08;5.00;99.90
29917;DHT22;16786;49.466;11.068;2022-12-05T15:12:59;5.00;99.90
29917;DHT22;16786;49.466;11.068;2022-12-05T15:15:13;5.00;99.90
29917;DHT22;16786;49.466;11.068;2022-12-05T15:17:59;5.00;99.90
29917;DHT22;16786;49.466;11.068;2022-12-05T15:20:40;5.00;99.90
29917;DHT22;16786;49.466;11.068;2022-12-05T15:26:55;5.00;99.90
29917;DHT22;16786;49.466;11.068;2022-12-05T15:29:25;5.00;99.90
29917;DHT22;16786;49.466;11.068;2022-12-05T15:32:01;5.00;99.90
29917;DHT22;16786;49.466;11.068;2022-12-05T15:40:13;5.00;99.90
29917;DHT22;16786;49.466;11.068;2022-12-05T15:42:48;5.00;99.90
29917;DHT22;16786;49.466;11.068;2022-12-05T15:47:50;5.00;99.90
29917;DHT22;16786;49.466;11.068;2022-12-05T15:50:37;5.00;99.90
29917;DHT22;16786;49.466;11.068;2022-12-05T16:01:05;5.10;99.90
29917;DHT22;16786;49.466;11.068;2022-12-05T16:03:39;5.10;99.90
29917;DHT22;16786;49.466;11.068;2022-12-05T16:06:25;5.00;99.90
29917;DHT22;16786;49.466;11.068;2022-12-05T16:08:55;5.00;99.90
29917;DHT22;16786;49.466;11.068;2022-12-05T16:11:23;5.10;99.90
29917;DHT22;16786;49.466;11.068;2022-12-05T16:13:55;5.00;99.90
29917;DHT22;16786;49.466;11.068;2022-12-05T16:16:26;5.00;99.90
29917;DHT22;16786;49.466;11.068;2022-12-05T16:19:05;5.00;99.90
29917;DHT22;16786;49.466;11.068;2022-12-05T16:22:15;5.00;99.90
29917;DHT22;16786;49.466;11.068;2022-12-05T16:24:53;5.00;99.90
29917;DHT22;16786;49.466;11.068;2022-12-05T16:27:39;5.00;99.90
29917;DHT22;16786;49.466;11.068;2022-12-05T16:30:21;5.00;99.90
29917;DHT22;16786;49.466;11.068;2022-12-05T16:32:56;5.00;99.90
29917;DHT22;16786;49.466;11.068;2022-12-05T16:35:44;5.00;99.90
29917;DHT22;16786;49.466;11.068;2022-12-05T16:48:45;4.90;99.90
29917;DHT22;16786;49.466;11.068;2022-12-05T16:51:19;4.80;99.90
29917;DHT22;16786;49.466;11.068;2022-12-05T16:53:54;4.90;99.90
29917;DHT22;16786;49.466;11.068;2022-12-05T16:56:28;4.90;99.90
29917;DHT22;16786;49.466;11.068;2022-12-05T16:58:57;4.80;99.90
29917;DHT22;16786;49.466;11.068;2022-12-05T17:01:27;4.80;99.90
29917;DHT22;16786;49.466;11.068;2022-12-05T17:04:00;4.80;99.90
29917;DHT22;16786;49.466;11.068;2022-12-05T17:06:27;4.80;99.90
29917;DHT22;16786;49.466;11.068;2022-12-05T17:08:54;4.70;99.90
29917;DHT22;16786;49.466;11.068;2022-12-05T17:11:24;4.70;99.90
29917;DHT22;16786;49.466;11.068;2022-12-05T17:13:53;4.70;99.90
29917;DHT22;16786;49.466;11.068;2022-12-05T17:16:22;4.70;99.90
29917;DHT22;16786;49.466;11.068;2022-12-05T17:18:50;4.60;99.90
29917;DHT22;16786;49.466;11.068;2022-12-05T17:21:21;4.60;99.90
29917;DHT22;16786;49.466;11.068;2022-12-05T17:23:50;4.50;99.90
29917;DHT22;16786;49.466;11.068;2022-12-05T17:26:19;4.50;99.90
29917;DHT22;16786;49.466;11.068;2022-12-05T17:28:47;4.50;99.90
29917;DHT22;16786;49.466;11.068;2022-12-05T17:31:20;4.50;99.90
29917;DHT22;16786;49.466;11.068;2022-12-05T17:33:49;4.50;99.90
29917;DHT22;16786;49.466;11.068;2022-12-05T17:36:16;4.50;99.90
29917;DHT22;16786;49.466;11.068;2022-12-05T17:38:46;4.50;99.90
29917;DHT22;16786;49.466;11.068;2022-12-05T17:41:22;4.50;99.90
29917;DHT22;16786;49.466;11.068;2022-12-05T17:43:50;4.60;99.90
29917;DHT22;16786;49.466;11.068;2022-12-05T17:46:19;4.60;99.90
29917;DHT22;16786;49.466;11.068;2022-12-05T17:48:48;4.50;99.90
29917;DHT22;16786;49.466;11.068;2022-12-05T17:51:16;4.50;99.90
29917;DHT22;16786;49.466;11.068;2022-12-05T17:53:44;4.50;99.90
29917;DHT22;16786;49.466;11.068;2022-12-05T17:56:12;4.50;99.90
29917;DHT22;16786;49.466;11.068;2022-12-05T17:58:40;4.50;99.90
29917;DHT22;16786;49.466;11.068;2022-12-05T18:01:16;4.50;99.90
29917;DHT22;16786;49.466;11.068;2022-12-05T18:03:44;4.50;99.90
29917;DHT22;16786;49.466;11.068;2022-12-05T18:06:12;4.40;99.90
29917;DHT22;16786;49.466;11.068;2022-12-05T18:08:39;4.40;99.90
29917;DHT22;16786;49.466;11.068;2022-12-05T18:11:12;4.30;99.90
29917;DHT22;16786;49.466;11.068;2022-12-05T18:13:40;4.30;99.90
29917;DHT22;16786;49.466;11.068;2022-12-05T18:16:07;4.20;99.90
29917;DHT22;16786;49.466;11.068;2022-12-05T18:18:35;4.20;99.90
29917;DHT22;16786;49.466;11.068;2022-12-05T18:23:31;4.10;99.90
29917;DHT22;16786;49.466;11.068;2022-12-05T18:25:59;4.10;99.90
29917;DHT22;16786;49.466;11.068;2022-12-05T18:28:26;4.00;99.90
29917;DHT22;16786;49.466;11.068;2022-12-05T18:31:10;4.00;99.90
29917;DHT22;16786;49.466;11.068;2022-12-05T18:33:38;4.00;99.90
29917;DHT22;16786;49.466;11.068;2022-12-05T18:36:08;4.00;99.90
29917;DHT22;16786;49.466;11.068;2022-12-05T18:38:36;4.00;99.90
29917;DHT22;16786;49.466;11.068;2022-12-05T18:41:04;4.00;99.90
29917;DHT22;16786;49.466;11.068;2022-12-05T18:43:32;4.00;99.90
29917;DHT22;16786;49.466;11.068;2022-12-05T18:46:01;4.00;99.90
29917;DHT22;16786;49.466;11.068;2022-12-05T18:48:30;4.00;99.90
29917;DHT22;16786;49.466;11.068;2022-12-05T18:51:20;4.00;99.90
29917;DHT22;16786;49.466;11.068;2022-12-05T18:53:49;4.00;99.90
29917;DHT22;16786;49.466;11.068;2022-12-05T18:56:32;3.90;99.90
29917;DHT22;16786;49.466;11.068;2022-12-05T18:59:03;3.90;99.90
29917;DHT22;16786;49.466;11.068;2022-12-05T19:01:36;3.90;99.90
29917;DHT22;16786;49.466;11.068;2022-12-05T19:04:05;3.90;99.90
29917;DHT22;16786;49.466;11.068;2022-12-05T19:06:34;3.90;99.90
29917;DHT22;16786;49.466;11.068;2022-12-05T19:09:09;3.90;99.90
29917;DHT22;16786;49.466;11.068;2022-12-05T19:11:40;4.00;99.90
29917;DHT22;16786;49.466;11.068;2022-12-05T19:14:14;4.10;99.90
29917;DHT22;16786;49.466;11.068;2022-12-05T19:16:42;4.10;99.90
29917;DHT22;16786;49.466;11.068;2022-12-05T19:19:11;4.10;99.90
29917;DHT22;16786;49.466;11.068;2022-12-05T19:21:40;4.10;99.90
29917;DHT22;16786;49.466;11.068;2022-12-05T19:24:10;4.10;99.90